Time,TemperatureF,DewpointF,PressureIn,WindDirection,WindDirectionDegrees,WindSpeedMPH,WindSpeedGustMPH,Humidity,HourlyPrecipIn,Conditions,Clouds,dailyrainin,SoftwareType,DateUTC
2013-05-26 00:02:00,50.0,40.0,30.33,NNW,346,0.0,-999.0,69,-99.99,,,-99.99,,2013-05-26 04:02:00,
2013-05-26 00:12:00,50.0,40.0,30.33,NNW,346,0.0,-999.0,69,-99.99,,,-99.99,,2013-05-26 04:12:00,
2013-05-26 00:23:00,50.0,41.0,30.34,NNW,346,0.0,-999.0,71,-99.99,,,-99.99,,2013-05-26 04:23:00,
2013-05-26 00:33:00,49.0,40.0,30.33,NNW,346,0.0,-999.0,72,-99.99,,,-99.99,,2013-05-26 04:33:00,
2013-05-26 00:42:00,49.0,40.0,30.33,NNW,346,0.0,-999.0,72,-99.99,,,-99.99,,2013-05-26 04:42:00,
2013-05-26 00:52:00,49.0,41.0,30.34,NNW,346,0.0,-999.0,73,-99.99,,,-99.99,,2013-05-26 04:52:00,
2013-05-26 01:02:00,47.0,40.0,30.33,NNW,346,0.0,-999.0,76,-99.99,,,-99.99,,2013-05-26 05:02:00,
2013-05-26 01:12:00,47.0,40.0,30.33,NNW,346,0.0,-999.0,76,-99.99,,,-99.99,,2013-05-26 05:12:00,
2013-05-26 01:22:00,47.0,41.0,30.33,NNW,346,0.0,-999.0,78,-99.99,,,-99.99,,2013-05-26 05:22:00,
2013-05-26 01:32:00,46.0,40.0,30.33,NNW,346,0.0,-999.0,80,-99.99,,,-99.99,,2013-05-26 05:32:00,
2013-05-26 01:42:00,46.0,40.0,30.33,NNW,346,0.0,-999.0,80,-99.99,,,-99.99,,2013-05-26 05:42:00,
2013-05-26 01:52:00,45.0,40.0,30.33,NNW,346,0.0,-999.0,81,-99.99,,,-99.99,,2013-05-26 05:52:00,
2013-05-26 02:01:00,45.0,40.0,30.33,NNW,346,0.0,-999.0,82,-99.99,,,-99.99,,2013-05-26 06:01:00,
2013-05-26 02:12:00,45.0,40.0,30.33,NNW,346,0.0,-999.0,82,-99.99,,,-99.99,,2013-05-26 06:12:00,
2013-05-26 02:22:00,45.0,40.0,30.33,NNW,346,0.0,-999.0,83,-99.99,,,-99.99,,2013-05-26 06:22:00,
2013-05-26 02:32:00,44.0,39.0,30.33,NNW,346,0.0,-999.0,84,-99.99,,,-99.99,,2013-05-26 06:32:00,
2013-05-26 02:42:00,44.0,39.0,30.33,NNW,346,0.0,-999.0,84,-99.99,,,-99.99,,2013-05-26 06:42:00,
2013-05-26 02:52:00,44.0,40.0,30.32,NNW,346,0.0,-999.0,85,-99.99,,,-99.99,,2013-05-26 06:52:00,
2013-05-26 03:01:00,44.0,40.0,30.32,NNW,346,0.0,-999.0,86,-99.99,,,-99.99,,2013-05-26 07:01:00,
2013-05-26 03:11:00,44.0,40.0,30.32,NNW,346,0.0,-999.0,86,-99.99,,,-99.99,,2013-05-26 07:11:00,
2013-05-26 03:21:00,43.0,39.0,30.32,NNW,346,0.0,-999.0,86,-99.99,,,-99.99,,2013-05-26 07:21:00,
2013-05-26 03:31:00,42.0,38.0,30.32,NNW,346,0.0,-999.0,87,-99.99,,,-99.99,,2013-05-26 07:31:00,
2013-05-26 03:42:00,42.0,38.0,30.32,NNW,346,0.0,-999.0,87,-99.99,,,-99.99,,2013-05-26 07:42:00,
2013-05-26 03:52:00,42.0,39.0,30.31,NNW,346,0.0,-999.0,88,-99.99,,,-99.99,,2013-05-26 07:52:00,
2013-05-26 04:01:00,41.0,38.0,30.30,NNW,346,0.0,-999.0,88,-99.99,,,-99.99,,2013-05-26 08:01:00,
2013-05-26 04:11:00,41.0,38.0,30.30,NNW,346,0.0,-999.0,88,-99.99,,,-99.99,,2013-05-26 08:11:00,
2013-05-26 04:21:00,42.0,39.0,30.30,NNW,346,0.0,-999.0,89,-99.99,,,-99.99,,2013-05-26 08:21:00,
2013-05-26 04:32:00,42.0,39.0,30.30,NNW,346,0.0,-999.0,90,-99.99,,,-99.99,,2013-05-26 08:32:00,
2013-05-26 04:42:00,42.0,39.0,30.30,NNW,346,0.0,-999.0,90,-99.99,,,-99.99,,2013-05-26 08:42:00,
2013-05-26 04:53:00,42.0,39.0,30.30,NNW,346,0.0,-999.0,90,-99.99,,,-99.99,,2013-05-26 08:53:00,
2013-05-26 05:01:00,42.0,39.0,30.30,NNW,346,0.0,-999.0,90,-99.99,,,-99.99,,2013-05-26 09:01:00,
2013-05-26 05:11:00,42.0,39.0,30.31,NNW,346,0.0,-999.0,90,-99.99,,,-99.99,,2013-05-26 09:11:00,
2013-05-26 05:21:00,42.0,39.0,30.31,NNW,346,0.0,-999.0,90,-99.99,,,-99.99,,2013-05-26 09:21:00,
2013-05-26 05:33:00,42.0,40.0,30.32,NNW,346,0.0,-999.0,91,-99.99,,,-99.99,,2013-05-26 09:33:00,
2013-05-26 05:42:00,42.0,40.0,30.32,NNW,346,0.0,-999.0,91,-99.99,,,-99.99,,2013-05-26 09:42:00,
2013-05-26 05:53:00,42.0,40.0,30.32,NNW,346,0.0,-999.0,91,-99.99,,,-99.99,,2013-05-26 09:53:00,
2013-05-26 06:02:00,42.0,40.0,30.33,NNW,346,0.0,-999.0,91,-99.99,,,-99.99,,2013-05-26 10:02:00,
2013-05-26 06:12:00,42.0,40.0,30.33,NNW,346,0.0,-999.0,91,-99.99,,,-99.99,,2013-05-26 10:12:00,
2013-05-26 06:23:00,42.0,40.0,30.32,NNW,346,0.0,-999.0,91,-99.99,,,-99.99,,2013-05-26 10:23:00,
2013-05-26 06:32:00,43.0,41.0,30.32,NNW,344,0.0,-999.0,91,-99.99,,,-99.99,,2013-05-26 10:32:00,
2013-05-26 06:42:00,44.0,41.0,30.32,North,360,0.0,-999.0,90,-99.99,,,-99.99,,2013-05-26 10:42:00,
2013-05-26 06:52:00,44.0,41.0,30.32,North,360,0.0,-999.0,90,-99.99,,,-99.99,,2013-05-26 10:52:00,
2013-05-26 07:03:00,44.0,41.0,30.33,North,360,0.0,-999.0,88,-99.99,,,-99.99,,2013-05-26 11:03:00,
2013-05-26 07:11:00,44.0,41.0,30.33,North,360,0.0,-999.0,88,-99.99,,,-99.99,,2013-05-26 11:11:00,
2013-05-26 07:22:00,44.0,40.0,30.33,North,360,0.0,-999.0,87,-99.99,,,-99.99,,2013-05-26 11:22:00,
2013-05-26 07:32:00,46.0,42.0,30.33,North,360,0.0,-999.0,85,-99.99,,,-99.99,,2013-05-26 11:32:00,
2013-05-26 07:42:00,46.0,42.0,30.33,North,360,0.0,-999.0,85,-99.99,,,-99.99,,2013-05-26 11:42:00,
2013-05-26 07:52:00,48.0,42.0,30.34,North,360,0.0,-999.0,80,-99.99,,,-99.99,,2013-05-26 11:52:00,
2013-05-26 08:01:00,50.0,42.0,30.33,NNE,20,0.0,-999.0,73,-99.99,,,-99.99,,2013-05-26 12:01:00,
2013-05-26 08:12:00,50.0,42.0,30.33,NNE,20,0.0,-999.0,73,-99.99,,,-99.99,,2013-05-26 12:12:00,
2013-05-26 08:21:00,53.0,42.0,30.33,NNE,21,0.0,-999.0,65,-99.99,,,-99.99,,2013-05-26 12:21:00,
2013-05-26 08:32:00,55.0,41.0,30.34,NNE,23,0.0,-999.0,59,-99.99,,,-99.99,,2013-05-26 12:32:00,
2013-05-26 08:42:00,55.0,41.0,30.34,NNE,23,0.0,-999.0,59,-99.99,,,-99.99,,2013-05-26 12:42:00,
2013-05-26 08:52:00,56.0,41.0,30.35,ENE,68,1.0,-999.0,56,-99.99,,,-99.99,,2013-05-26 12:52:00,
2013-05-26 09:02:00,56.0,41.0,30.35,ENE,68,0.0,-999.0,56,-99.99,,,-99.99,,2013-05-26 13:02:00,
2013-05-26 09:11:00,56.0,41.0,30.35,ENE,68,0.0,-999.0,56,-99.99,,,-99.99,,2013-05-26 13:11:00,
2013-05-26 09:21:00,57.0,41.0,30.34,ENE,65,1.0,-999.0,55,-99.99,,,-99.99,,2013-05-26 13:21:00,
2013-05-26 09:32:00,58.0,41.0,30.35,ESE,102,1.0,-999.0,53,-99.99,,,-99.99,,2013-05-26 13:32:00,
2013-05-26 09:42:00,59.0,42.0,30.34,ENE,72,2.0,-999.0,53,-99.99,,,-99.99,,2013-05-26 13:42:00,
2013-05-26 09:52:00,59.0,42.0,30.34,ENE,72,2.0,-999.0,53,-99.99,,,-99.99,,2013-05-26 13:52:00,
2013-05-26 10:02:00,60.0,42.0,30.35,East,100,2.0,-999.0,51,-99.99,,,-99.99,,2013-05-26 14:02:00,
2013-05-26 10:11:00,60.0,42.0,30.35,East,100,2.0,-999.0,51,-99.99,,,-99.99,,2013-05-26 14:11:00,
2013-05-26 10:21:00,61.0,42.0,30.35,ENE,69,2.0,-999.0,49,-99.99,,,-99.99,,2013-05-26 14:21:00,
2013-05-26 10:32:00,61.0,41.0,30.35,SE,126,2.0,-999.0,48,-99.99,,,-99.99,,2013-05-26 14:32:00,
2013-05-26 10:42:00,62.0,41.0,30.35,ESE,104,2.0,-999.0,46,-99.99,,,-99.99,,2013-05-26 14:42:00,
2013-05-26 10:52:00,62.0,41.0,30.35,ESE,104,2.0,-999.0,46,-99.99,,,-99.99,,2013-05-26 14:52:00,
2013-05-26 11:01:00,62.0,41.0,30.34,ENE,61,3.0,-999.0,46,-99.99,,,-99.99,,2013-05-26 15:01:00,
2013-05-26 11:12:00,62.0,41.0,30.34,ENE,61,3.0,-999.0,46,-99.99,,,-99.99,,2013-05-26 15:12:00,
2013-05-26 11:22:00,62.0,40.0,30.33,ESE,113,2.0,-999.0,45,-99.99,,,-99.99,,2013-05-26 15:22:00,
2013-05-26 11:33:00,62.0,41.0,30.34,ESE,107,2.0,-999.0,46,-99.99,,,-99.99,,2013-05-26 15:33:00,
2013-05-26 11:43:00,63.0,42.0,30.34,ENE,71,2.0,-999.0,46,-99.99,,,-99.99,,2013-05-26 15:43:00,
2013-05-26 11:53:00,63.0,42.0,30.34,ENE,71,2.0,-999.0,46,-99.99,,,-99.99,,2013-05-26 15:53:00,
2013-05-26 12:03:00,63.0,41.0,30.34,ENE,75,2.0,-999.0,44,-99.99,,,-99.99,,2013-05-26 16:03:00,
2013-05-26 12:12:00,64.0,43.0,30.33,SE,127,2.0,-999.0,46,-99.99,,,-99.99,,2013-05-26 16:12:00,
2013-05-26 12:23:00,64.0,43.0,30.33,SE,127,2.0,-999.0,46,-99.99,,,-99.99,,2013-05-26 16:23:00,
2013-05-26 12:33:00,64.0,42.0,30.34,ESE,109,2.0,-999.0,44,-99.99,,,-99.99,,2013-05-26 16:33:00,
2013-05-26 12:42:00,65.0,41.0,30.34,SE,127,3.0,-999.0,42,-99.99,,,-99.99,,2013-05-26 16:42:00,
2013-05-26 12:53:00,65.0,41.0,30.34,SE,127,3.0,-999.0,42,-99.99,,,-99.99,,2013-05-26 16:53:00,
2013-05-26 13:02:00,65.0,41.0,30.34,SE,134,2.0,-999.0,42,-99.99,,,-99.99,,2013-05-26 17:02:00,
2013-05-26 13:11:00,65.0,41.0,30.34,SE,134,2.0,-999.0,42,-99.99,,,-99.99,,2013-05-26 17:11:00,
2013-05-26 13:22:00,66.0,42.0,30.33,ENE,71,2.0,-999.0,41,-99.99,,,-99.99,,2013-05-26 17:22:00,
2013-05-26 13:32:00,66.0,41.0,30.33,ENE,62,1.0,-999.0,40,-99.99,,,-99.99,,2013-05-26 17:32:00,
2013-05-26 13:42:00,66.0,40.0,30.32,ESE,121,2.0,-999.0,39,-99.99,,,-99.99,,2013-05-26 17:42:00,
2013-05-26 13:52:00,66.0,40.0,30.32,ESE,121,2.0,-999.0,39,-99.99,,,-99.99,,2013-05-26 17:52:00,
2013-05-26 14:01:00,67.0,41.0,30.32,ENE,72,2.0,-999.0,38,-99.99,,,-99.99,,2013-05-26 18:01:00,
2013-05-26 14:12:00,67.0,41.0,30.32,ENE,72,2.0,-999.0,38,-99.99,,,-99.99,,2013-05-26 18:12:00,
2013-05-26 14:21:00,67.0,41.0,30.30,ENE,76,2.0,-999.0,38,-99.99,,,-99.99,,2013-05-26 18:21:00,
2013-05-26 14:32:00,67.0,42.0,30.30,ENE,69,1.0,-999.0,40,-99.99,,,-99.99,,2013-05-26 18:32:00,
2013-05-26 14:42:00,68.0,41.0,30.30,ESE,107,1.0,-999.0,38,-99.99,,,-99.99,,2013-05-26 18:42:00,
2013-05-26 14:52:00,68.0,41.0,30.30,ESE,107,1.0,-999.0,38,-99.99,,,-99.99,,2013-05-26 18:52:00,
2013-05-26 15:01:00,68.0,41.0,30.29,ESE,113,2.0,-999.0,37,-99.99,,,-99.99,,2013-05-26 19:01:00,
2013-05-26 15:11:00,68.0,41.0,30.29,ESE,113,2.0,-999.0,37,-99.99,,,-99.99,,2013-05-26 19:11:00,
2013-05-26 15:22:00,68.0,40.0,30.29,ENE,69,2.0,-999.0,36,-99.99,,,-99.99,,2013-05-26 19:22:00,
2013-05-26 15:32:00,68.0,40.0,30.28,ESE,110,2.0,-999.0,36,-99.99,,,-99.99,,2013-05-26 19:32:00,
2013-05-26 15:42:00,68.0,40.0,30.28,ESE,110,2.0,-999.0,36,-99.99,,,-99.99,,2013-05-26 19:42:00,
2013-05-26 15:52:00,68.0,41.0,30.28,ESE,121,2.0,-999.0,37,-99.99,,,-99.99,,2013-05-26 19:52:00,
2013-05-26 16:02:00,68.0,40.0,30.28,ESE,113,1.0,-999.0,36,-99.99,,,-99.99,,2013-05-26 20:02:00,
2013-05-26 16:11:00,68.0,40.0,30.28,ESE,113,1.0,-999.0,36,-99.99,,,-99.99,,2013-05-26 20:11:00,
2013-05-26 16:22:00,68.0,41.0,30.27,ENE,65,2.0,-999.0,37,-99.99,,,-99.99,,2013-05-26 20:22:00,
2013-05-26 16:32:00,68.0,41.0,30.27,SE,126,1.0,-999.0,37,-99.99,,,-99.99,,2013-05-26 20:32:00,
2013-05-26 16:41:00,69.0,42.0,30.27,ENE,73,1.0,-999.0,37,-99.99,,,-99.99,,2013-05-26 20:41:00,
2013-05-26 16:52:00,69.0,42.0,30.27,ENE,73,1.0,-999.0,37,-99.99,,,-99.99,,2013-05-26 20:52:00,
2013-05-26 17:01:00,68.0,40.0,30.27,ESE,121,2.0,-999.0,36,-99.99,,,-99.99,,2013-05-26 21:01:00,
2013-05-26 17:11:00,68.0,40.0,30.27,ESE,121,2.0,-999.0,36,-99.99,,,-99.99,,2013-05-26 21:11:00,
2013-05-26 17:22:00,68.0,41.0,30.26,ESE,121,1.0,-999.0,37,-99.99,,,-99.99,,2013-05-26 21:22:00,
2013-05-26 17:33:00,69.0,41.0,30.25,East,96,2.0,-999.0,36,-99.99,,,-99.99,,2013-05-26 21:33:00,
2013-05-26 17:43:00,69.0,41.0,30.25,East,96,2.0,-999.0,36,-99.99,,,-99.99,,2013-05-26 21:43:00,
2013-05-26 17:53:00,69.0,40.0,30.24,ESE,107,2.0,-999.0,35,-99.99,,,-99.99,,2013-05-26 21:53:00,
2013-05-26 18:02:00,69.0,40.0,30.24,SSW,203,2.0,-999.0,35,-99.99,,,-99.99,,2013-05-26 22:02:00,
2013-05-26 18:12:00,69.0,40.0,30.24,SSW,203,2.0,-999.0,35,-99.99,,,-99.99,,2013-05-26 22:12:00,
2013-05-26 18:23:00,69.0,40.0,30.24,ENE,76,1.0,-999.0,35,-99.99,,,-99.99,,2013-05-26 22:23:00,
2013-05-26 18:33:00,68.0,40.0,30.24,East,99,1.0,-999.0,36,-99.99,,,-99.99,,2013-05-26 22:33:00,
2013-05-26 18:42:00,68.0,40.0,30.24,SE,127,2.0,-999.0,36,-99.99,,,-99.99,,2013-05-26 22:42:00,
2013-05-26 18:53:00,68.0,40.0,30.24,SE,127,2.0,-999.0,36,-99.99,,,-99.99,,2013-05-26 22:53:00,
2013-05-26 19:02:00,69.0,42.0,30.22,ENE,73,1.0,-999.0,37,-99.99,,,-99.99,,2013-05-26 23:02:00,
2013-05-26 19:11:00,69.0,42.0,30.22,ENE,73,1.0,-999.0,37,-99.99,,,-99.99,,2013-05-26 23:11:00,
2013-05-26 19:22:00,69.0,40.0,30.22,SE,136,2.0,-999.0,35,-99.99,,,-99.99,,2013-05-26 23:22:00,
2013-05-26 19:32:00,68.0,39.0,30.21,SE,130,2.0,-999.0,35,-99.99,,,-99.99,,2013-05-26 23:32:00,
2013-05-26 19:43:00,68.0,40.0,30.21,SE,130,1.0,-999.0,36,-99.99,,,-99.99,,2013-05-26 23:43:00,
2013-05-26 19:52:00,68.0,40.0,30.21,SE,130,1.0,-999.0,36,-99.99,,,-99.99,,2013-05-26 23:52:00,
2013-05-26 20:02:00,68.0,41.0,30.21,SE,130,1.0,-999.0,37,-99.99,,,-99.99,,2013-05-27 00:02:00,
2013-05-26 20:11:00,68.0,41.0,30.21,SE,130,1.0,-999.0,37,-99.99,,,-99.99,,2013-05-27 00:11:00,
2013-05-26 20:21:00,67.0,39.0,30.22,SE,130,0.0,-999.0,36,-99.99,,,-99.99,,2013-05-27 00:21:00,
2013-05-26 20:32:00,67.0,40.0,30.21,SE,130,1.0,-999.0,37,-99.99,,,-99.99,,2013-05-27 00:32:00,
2013-05-26 20:41:00,66.0,40.0,30.21,SE,130,0.0,-999.0,38,-99.99,,,-99.99,,2013-05-27 00:41:00,
2013-05-26 20:52:00,66.0,40.0,30.21,SE,130,0.0,-999.0,38,-99.99,,,-99.99,,2013-05-27 00:52:00,
2013-05-26 21:01:00,66.0,40.0,30.22,SE,130,0.0,-999.0,39,-99.99,,,-99.99,,2013-05-27 01:01:00,
2013-05-26 21:11:00,66.0,40.0,30.22,SE,130,0.0,-999.0,39,-99.99,,,-99.99,,2013-05-27 01:11:00,
2013-05-26 21:22:00,66.0,42.0,30.22,SE,130,0.0,-999.0,41,-99.99,,,-99.99,,2013-05-27 01:22:00,
2013-05-26 21:31:00,65.0,42.0,30.21,SE,130,0.0,-999.0,43,-99.99,,,-99.99,,2013-05-27 01:31:00,
2013-05-26 21:42:00,64.0,42.0,30.21,SE,130,0.0,-999.0,44,-99.99,,,-99.99,,2013-05-27 01:42:00,
2013-05-26 21:52:00,64.0,42.0,30.21,SE,130,0.0,-999.0,44,-99.99,,,-99.99,,2013-05-27 01:52:00,
2013-05-26 22:01:00,64.0,43.0,30.21,SE,130,0.0,-999.0,46,-99.99,,,-99.99,,2013-05-27 02:01:00,
2013-05-26 22:11:00,64.0,43.0,30.21,SE,130,0.0,-999.0,46,-99.99,,,-99.99,,2013-05-27 02:11:00,
2013-05-26 22:21:00,63.0,42.0,30.22,SE,130,0.0,-999.0,46,-99.99,,,-99.99,,2013-05-27 02:21:00,
2013-05-26 22:32:00,63.0,44.0,30.23,SE,130,0.0,-999.0,49,-99.99,,,-99.99,,2013-05-27 02:32:00,
2013-05-26 22:42:00,63.0,44.0,30.23,SE,130,0.0,-999.0,49,-99.99,,,-99.99,,2013-05-27 02:42:00,
2013-05-26 22:52:00,63.0,44.0,30.23,SE,130,0.0,-999.0,49,-99.99,,,-99.99,,2013-05-27 02:52:00,
2013-05-26 23:02:00,63.0,44.0,30.22,SE,130,0.0,-999.0,49,-99.99,,,-99.99,,2013-05-27 03:02:00,
2013-05-26 23:11:00,63.0,44.0,30.22,SE,130,0.0,-999.0,49,-99.99,,,-99.99,,2013-05-27 03:11:00,
2013-05-26 23:21:00,63.0,45.0,30.23,SE,130,0.0,-999.0,52,-99.99,,,-99.99,,2013-05-27 03:21:00,
2013-05-26 23:33:00,63.0,47.0,30.22,SE,130,1.0,-999.0,56,-99.99,,,-99.99,,2013-05-27 03:33:00,
2013-05-26 23:42:00,63.0,47.0,30.22,SE,130,1.0,-999.0,56,-99.99,,,-99.99,,2013-05-27 03:42:00,
2013-05-26 23:53:00,62.0,49.0,30.23,SE,130,0.0,-999.0,62,-99.99,,,-99.99,,2013-05-27 03:53:00,